sensor_id;sensor_type;location;lat;lon;timestamp;pressure;altitude;pressure_sealevel;temperature;humidity
41636;BME280;27623;51.966;4.602;2023-01-25T00:01:25;63470.47;;;2.84;89.26
41636;BME280;27623;51.966;4.602;2023-01-25T00:03:51;63507.19;;;3.04;90.42
41636;BME280;27623;51.966;4.602;2023-01-25T00:06:17;63515.91;;;3.26;90.31
41636;BME280;27623;51.966;4.602;2023-01-25T00:08:43;63505.03;;;3.02;91.72
41636;BME280;27623;51.966;4.602;2023-01-25T00:11:15;63466.19;;;2.94;90.93
41636;BME280;27623;51.966;4.602;2023-01-25T00:13:44;63440.03;;;2.60;92.87
41636;BME280;27623;51.966;4.602;2023-01-25T00:16:10;63471.56;;;2.92;92.29
41636;BME280;27623;51.966;4.602;2023-01-25T00:18:36;63491.75;;;3.06;91.89
41636;BME280;27623;51.966;4.602;2023-01-25T00:21:18;63538.56;;;3.26;90.83
41636;BME280;27623;51.966;4.602;2023-01-25T00:23:52;63536.16;;;3.07;89.96
41636;BME280;27623;51.966;4.602;2023-01-25T00:26:18;63503.50;;;2.74;91.55
41636;BME280;27623;51.966;4.602;2023-01-25T00:28:54;63463.34;;;3.03;91.72
41636;BME280;27623;51.966;4.602;2023-01-25T00:31:30;63448.91;;;2.78;90.89
41636;BME280;27623;51.966;4.602;2023-01-25T00:39:15;63480.78;;;3.07;91.52
41636;BME280;27623;51.966;4.602;2023-01-25T00:41:41;63485.47;;;3.09;91.46
41636;BME280;27623;51.966;4.602;2023-01-25T00:44:07;63443.47;;;2.65;92.22
41636;BME280;27623;51.966;4.602;2023-01-25T00:46:32;63426.91;;;2.52;93.43
41636;BME280;27623;51.966;4.602;2023-01-25T00:48:58;63495.28;;;2.86;92.67
41636;BME280;27623;51.966;4.602;2023-01-25T00:51:23;63519.28;;;3.10;91.65
41636;BME280;27623;51.966;4.602;2023-01-25T00:53:49;63474.09;;;2.99;91.47
41636;BME280;27623;51.966;4.602;2023-01-25T00:56:15;63494.44;;;3.01;91.74
41636;BME280;27623;51.966;4.602;2023-01-25T00:58:41;63473.91;;;2.89;92.42
41636;BME280;27623;51.966;4.602;2023-01-25T01:01:07;63491.88;;;2.94;91.77
41636;BME280;27623;51.966;4.602;2023-01-25T01:03:32;63512.97;;;3.14;91.42
41636;BME280;27623;51.966;4.602;2023-01-25T01:06:02;63512.66;;;3.23;89.84
41636;BME280;27623;51.966;4.602;2023-01-25T01:08:28;63505.81;;;3.19;90.19
41636;BME280;27623;51.966;4.602;2023-01-25T01:11:00;63496.13;;;3.24;90.29
41636;BME280;27623;51.966;4.602;2023-01-25T01:13:27;63526.50;;;3.27;89.97
41636;BME280;27623;51.966;4.602;2023-01-25T01:15:52;63533.00;;;3.33;89.08
41636;BME280;27623;51.966;4.602;2023-01-25T01:18:18;63568.47;;;3.42;89.10
41636;BME280;27623;51.966;4.602;2023-01-25T01:20:51;63477.19;;;3.06;89.06
41636;BME280;27623;51.966;4.602;2023-01-25T01:23:17;63502.56;;;3.16;90.51
41636;BME280;27623;51.966;4.602;2023-01-25T01:25:44;63451.91;;;2.71;90.04
41636;BME280;27623;51.966;4.602;2023-01-25T01:28:10;63476.00;;;2.70;91.44
41636;BME280;27623;51.966;4.602;2023-01-25T01:30:36;63448.38;;;2.84;91.65
41636;BME280;27623;51.966;4.602;2023-01-25T01:33:02;63451.38;;;2.70;91.35
41636;BME280;27623;51.966;4.602;2023-01-25T01:35:28;63463.66;;;2.87;91.75
41636;BME280;27623;51.966;4.602;2023-01-25T01:37:54;63433.78;;;2.63;92.13
41636;BME280;27623;51.966;4.602;2023-01-25T01:40:19;63492.00;;;2.68;92.88
41636;BME280;27623;51.966;4.602;2023-01-25T01:51:01;63472.84;;;2.95;89.40
41636;BME280;27623;51.966;4.602;2023-01-25T01:53:28;63471.50;;;2.63;90.43
41636;BME280;27623;51.966;4.602;2023-01-25T01:55:59;63457.88;;;2.76;91.54
41636;BME280;27623;51.966;4.602;2023-01-25T01:58:27;63495.69;;;2.98;90.66
41636;BME280;27623;51.966;4.602;2023-01-25T02:00:53;63501.59;;;2.89;89.94
41636;BME280;27623;51.966;4.602;2023-01-25T02:03:19;63479.88;;;3.02;88.85
41636;BME280;27623;51.966;4.602;2023-01-25T02:06:03;63473.03;;;2.91;88.99
41636;BME280;27623;51.966;4.602;2023-01-25T02:08:31;63504.44;;;2.87;89.39
41636;BME280;27623;51.966;4.602;2023-01-25T02:10:58;63526.88;;;3.32;87.87
41636;BME280;27623;51.966;4.602;2023-01-25T02:13:27;63495.53;;;3.09;88.82
41636;BME280;27623;51.966;4.602;2023-01-25T02:15:52;63471.03;;;2.84;89.19
41636;BME280;27623;51.966;4.602;2023-01-25T02:18:20;63513.63;;;2.89;89.37
41636;BME280;27623;51.966;4.602;2023-01-25T02:20:48;63509.03;;;3.15;88.85
41636;BME280;27623;51.966;4.602;2023-01-25T02:23:26;63497.16;;;3.18;88.41
41636;BME280;27623;51.966;4.602;2023-01-25T02:25:59;63548.25;;;3.21;87.97
41636;BME280;27623;51.966;4.602;2023-01-25T02:31:12;63460.31;;;2.55;89.70
41636;BME280;27623;51.966;4.602;2023-01-25T02:33:41;63450.31;;;2.69;91.27
41636;BME280;27623;51.966;4.602;2023-01-25T02:38:38;63448.09;;;2.53;91.10
41636;BME280;27623;51.966;4.602;2023-01-25T02:41:17;63454.97;;;2.71;91.52
41636;BME280;27623;51.966;4.602;2023-01-25T02:43:45;63451.22;;;2.75;91.08
41636;BME280;27623;51.966;4.602;2023-01-25T02:46:17;63461.56;;;3.06;89.59
41636;BME280;27623;51.966;4.602;2023-01-25T02:48:47;63464.41;;;2.97;89.26
41636;BME280;27623;51.966;4.602;2023-01-25T02:51:12;63468.88;;;2.96;89.09
41636;BME280;27623;51.966;4.602;2023-01-25T02:53:41;63510.66;;;3.17;88.36
41636;BME280;27623;51.966;4.602;2023-01-25T02:56:06;63494.59;;;2.97;88.60
41636;BME280;27623;51.966;4.602;2023-01-25T02:58:32;63468.28;;;2.67;90.55
41636;BME280;27623;51.966;4.602;2023-01-25T03:00:58;63361.09;;;2.19;90.51
41636;BME280;27623;51.966;4.602;2023-01-25T03:03:24;63424.19;;;2.42;nan
41636;BME280;27623;51.966;4.602;2023-01-25T03:05:49;63439.53;;;2.66;92.15
41636;BME280;27623;51.966;4.602;2023-01-25T03:08:15;63457.50;;;2.71;90.21
41636;BME280;27623;51.966;4.602;2023-01-25T03:10:41;63479.28;;;2.80;90.91
41636;BME280;27623;51.966;4.602;2023-01-25T03:13:06;63481.28;;;2.87;90.13
41636;BME280;27623;51.966;4.602;2023-01-25T03:15:32;63433.25;;;2.70;90.15
41636;BME280;27623;51.966;4.602;2023-01-25T03:17:57;63444.63;;;2.95;91.13
41636;BME280;27623;51.966;4.602;2023-01-25T03:20:23;63487.03;;;2.97;90.11
41636;BME280;27623;51.966;4.602;2023-01-25T03:22:51;63408.22;;;2.44;90.11
41636;BME280;27623;51.966;4.602;2023-01-25T03:25:17;63369.19;;;2.26;91.80
41636;BME280;27623;51.966;4.602;2023-01-25T03:27:42;63377.31;;;1.87;92.68
41636;BME280;27623;51.966;4.602;2023-01-25T03:30:08;63401.78;;;2.05;93.31
41636;BME280;27623;51.966;4.602;2023-01-25T03:32:33;63373.97;;;2.02;93.61
41636;BME280;27623;51.966;4.602;2023-01-25T03:34:59;63382.25;;;2.05;93.00
41636;BME280;27623;51.966;4.602;2023-01-25T03:37:25;63345.16;;;1.73;92.76
41636;BME280;27623;51.966;4.602;2023-01-25T03:39:54;63416.22;;;2.23;92.92
41636;BME280;27623;51.966;4.602;2023-01-25T03:42:20;63451.69;;;2.54;91.45
41636;BME280;27623;51.966;4.602;2023-01-25T03:44:46;63406.16;;;2.23;89.54
41636;BME280;27623;51.966;4.602;2023-01-25T03:47:11;63442.31;;;2.43;91.00
41636;BME280;27623;51.966;4.602;2023-01-25T03:49:37;63479.72;;;2.59;89.96
41636;BME280;27623;51.966;4.602;2023-01-25T03:52:03;63465.38;;;2.62;89.83
41636;BME280;27623;51.966;4.602;2023-01-25T03:54:31;63464.69;;;2.73;89.34
41636;BME280;27623;51.966;4.602;2023-01-25T03:56:57;63452.41;;;2.57;89.65
41636;BME280;27623;51.966;4.602;2023-01-25T03:59:23;63448.31;;;2.63;89.36
41636;BME280;27623;51.966;4.602;2023-01-25T04:01:48;63457.88;;;2.76;88.41
41636;BME280;27623;51.966;4.602;2023-01-25T04:04:13;63458.09;;;2.86;88.28
41636;BME280;27623;51.966;4.602;2023-01-25T04:06:39;63453.56;;;2.80;88.79
41636;BME280;27623;51.966;4.602;2023-01-25T04:09:05;63474.75;;;2.73;89.29
41636;BME280;27623;51.966;4.602;2023-01-25T04:11:31;63477.25;;;2.73;89.71
41636;BME280;27623;51.966;4.602;2023-01-25T04:13:56;63476.06;;;2.84;88.79
41636;BME280;27623;51.966;4.602;2023-01-25T04:16:22;63461.97;;;2.71;88.88
41636;BME280;27623;51.966;4.602;2023-01-25T04:18:47;63457.69;;;2.67;89.35
41636;BME280;27623;51.966;4.602;2023-01-25T04:21:13;63496.09;;;2.63;89.97
41636;BME280;27623;51.966;4.602;2023-01-25T04:23:39;63439.03;;;2.33;89.54
41636;BME280;27623;51.966;4.602;2023-01-25T04:26:08;63459.25;;;2.61;90.04
41636;BME280;27623;51.966;4.602;2023-01-25T04:28:36;63464.34;;;2.75;88.41
41636;BME280;27623;51.966;4.602;2023-01-25T04:31:02;63448.88;;;2.70;89.33
41636;BME280;27623;51.966;4.602;2023-01-25T04:33:28;63437.03;;;2.73;88.08
41636;BME280;27623;51.966;4.602;2023-01-25T04:35:54;63418.78;;;2.37;89.55
41636;BME280;27623;51.966;4.602;2023-01-25T04:38:19;63398.44;;;2.21;91.12
41636;BME280;27623;51.966;4.602;2023-01-25T04:40:45;63372.94;;;2.16;91.05
41636;BME280;27623;51.966;4.602;2023-01-25T04:43:14;63391.94;;;2.08;91.67
41636;BME280;27623;51.966;4.602;2023-01-25T04:45:43;63386.25;;;1.79;92.71
41636;BME280;27623;51.966;4.602;2023-01-25T04:48:11;63348.69;;;1.60;92.66
41636;BME280;27623;51.966;4.602;2023-01-25T04:50:38;63372.81;;;1.80;92.81
41636;BME280;27623;51.966;4.602;2023-01-25T04:53:04;63390.13;;;2.03;92.95
41636;BME280;27623;51.966;4.602;2023-01-25T04:55:33;63389.75;;;1.98;92.72
41636;BME280;27623;51.966;4.602;2023-01-25T04:58:02;63382.66;;;2.32;91.05
41636;BME280;27623;51.966;4.602;2023-01-25T05:00:28;63429.75;;;2.43;90.26
41636;BME280;27623;51.966;4.602;2023-01-25T05:02:54;63422.44;;;2.60;89.56
41636;BME280;27623;51.966;4.602;2023-01-25T05:05:20;63426.53;;;2.54;89.30
41636;BME280;27623;51.966;4.602;2023-01-25T05:07:45;63377.63;;;2.25;89.73
41636;BME280;27623;51.966;4.602;2023-01-25T05:10:11;63413.09;;;2.01;90.08
41636;BME280;27623;51.966;4.602;2023-01-25T05:12:36;63426.81;;;2.31;89.83
41636;BME280;27623;51.966;4.602;2023-01-25T05:15:05;63422.38;;;2.38;90.18
41636;BME280;27623;51.966;4.602;2023-01-25T05:17:30;63459.59;;;2.52;88.34
41636;BME280;27623;51.966;4.602;2023-01-25T05:19:56;63376.16;;;2.19;89.79
41636;BME280;27623;51.966;4.602;2023-01-25T05:22:21;63435.59;;;2.20;90.82
41636;BME280;27623;51.966;4.602;2023-01-25T05:24:47;63374.41;;;2.29;90.61
41636;BME280;27623;51.966;4.602;2023-01-25T05:27:16;63402.34;;;2.05;92.03
41636;BME280;27623;51.966;4.602;2023-01-25T05:29:43;63352.63;;;2.13;92.58
41636;BME280;27623;51.966;4.602;2023-01-25T05:32:10;63360.66;;;1.92;92.14
41636;BME280;27623;51.966;4.602;2023-01-25T05:34:36;63415.06;;;2.08;92.87
41636;BME280;27623;51.966;4.602;2023-01-25T05:37:06;63423.59;;;1.88;92.17
41636;BME280;27623;51.966;4.602;2023-01-25T05:39:32;63369.16;;;2.12;92.02
41636;BME280;27623;51.966;4.602;2023-01-25T05:41:57;63381.56;;;2.24;91.57
41636;BME280;27623;51.966;4.602;2023-01-25T05:44:23;63399.53;;;2.29;91.68
41636;BME280;27623;51.966;4.602;2023-01-25T05:46:49;63404.00;;;2.21;91.83
41636;BME280;27623;51.966;4.602;2023-01-25T05:49:15;63351.44;;;1.77;91.22
41636;BME280;27623;51.966;4.602;2023-01-25T05:51:41;63401.16;;;1.83;93.16
41636;BME280;27623;51.966;4.602;2023-01-25T05:54:11;63325.22;;;1.68;93.67
41636;BME280;27623;51.966;4.602;2023-01-25T05:56:36;63343.69;;;1.67;93.30
41636;BME280;27623;51.966;4.602;2023-01-25T05:59:02;63407.81;;;1.92;93.94
41636;BME280;27623;51.966;4.602;2023-01-25T06:01:28;63387.47;;;2.15;93.72
41636;BME280;27623;51.966;4.602;2023-01-25T06:03:53;63382.03;;;2.03;93.42
41636;BME280;27623;51.966;4.602;2023-01-25T06:06:19;63397.56;;;2.29;92.35
41636;BME280;27623;51.966;4.602;2023-01-25T06:08:45;63375.94;;;2.02;92.88
41636;BME280;27623;51.966;4.602;2023-01-25T06:11:14;63342.97;;;1.64;92.75
41636;BME280;27623;51.966;4.602;2023-01-25T06:13:40;63376.72;;;1.72;93.24
41636;BME280;27623;51.966;4.602;2023-01-25T06:16:07;63408.25;;;2.11;93.58
41636;BME280;27623;51.966;4.602;2023-01-25T06:18:33;63391.81;;;2.33;91.24
41636;BME280;27623;51.966;4.602;2023-01-25T06:21:00;63381.66;;;1.98;91.38
41636;BME280;27623;51.966;4.602;2023-01-25T06:23:25;63415.44;;;2.13;92.25
41636;BME280;27623;51.966;4.602;2023-01-25T06:25:52;63430.38;;;2.18;92.34
41636;BME280;27623;51.966;4.602;2023-01-25T06:28:20;63450.94;;;2.44;91.59
41636;BME280;27623;51.966;4.602;2023-01-25T06:30:48;63423.19;;;2.16;90.72
41636;BME280;27623;51.966;4.602;2023-01-25T06:33:13;63401.53;;;2.35;92.14
41636;BME280;27623;51.966;4.602;2023-01-25T06:35:39;63419.81;;;2.31;92.39
41636;BME280;27623;51.966;4.602;2023-01-25T06:38:05;63384.13;;;2.38;92.03
41636;BME280;27623;51.966;4.602;2023-01-25T06:40:31;63421.03;;;2.14;92.10
41636;BME280;27623;51.966;4.602;2023-01-25T06:43:07;63426.50;;;2.40;91.12
41636;BME280;27623;51.966;4.602;2023-01-25T06:45:33;63352.38;;;1.89;91.68
41636;BME280;27623;51.966;4.602;2023-01-25T06:47:58;63334.91;;;1.70;92.75
41636;BME280;27623;51.966;4.602;2023-01-25T06:50:24;63392.56;;;1.89;93.04
41636;BME280;27623;51.966;4.602;2023-01-25T06:52:51;63400.44;;;1.80;93.95
41636;BME280;27623;51.966;4.602;2023-01-25T06:55:16;63360.50;;;1.97;93.70
41636;BME280;27623;51.966;4.602;2023-01-25T06:57:42;63396.25;;;2.12;93.78
41636;BME280;27623;51.966;4.602;2023-01-25T07:00:10;63352.38;;;1.89;93.35
41636;BME280;27623;51.966;4.602;2023-01-25T07:02:36;63368.78;;;2.14;93.47
41636;BME280;27623;51.966;4.602;2023-01-25T07:05:01;63379.38;;;2.15;93.00
41636;BME280;27623;51.966;4.602;2023-01-25T07:07:29;63407.28;;;2.38;92.31
41636;BME280;27623;51.966;4.602;2023-01-25T07:09:57;63407.25;;;2.24;91.86
41636;BME280;27623;51.966;4.602;2023-01-25T07:12:28;63369.91;;;1.75;92.38
41636;BME280;27623;51.966;4.602;2023-01-25T07:14:54;63383.69;;;2.12;93.21
41636;BME280;27623;51.966;4.602;2023-01-25T07:17:20;63370.75;;;1.66;92.78
41636;BME280;27623;51.966;4.602;2023-01-25T07:19:45;63363.06;;;1.64;94.90
41636;BME280;27623;51.966;4.602;2023-01-25T07:22:11;63393.91;;;2.07;94.59
41636;BME280;27623;51.966;4.602;2023-01-25T07:24:36;63396.06;;;2.09;93.29
41636;BME280;27623;51.966;4.602;2023-01-25T07:27:02;63366.81;;;2.15;93.12
41636;BME280;27623;51.966;4.602;2023-01-25T07:29:28;63340.88;;;1.76;93.07
41636;BME280;27623;51.966;4.602;2023-01-25T07:31:54;63331.72;;;1.75;93.74
41636;BME280;27623;51.966;4.602;2023-01-25T07:34:20;63325.63;;;1.33;94.89
41636;BME280;27623;51.966;4.602;2023-01-25T07:36:45;63347.47;;;1.63;95.05
41636;BME280;27623;51.966;4.602;2023-01-25T07:39:11;63353.97;;;1.77;95.36
41636;BME280;27623;51.966;4.602;2023-01-25T07:41:37;63351.16;;;1.53;94.76
41636;BME280;27623;51.966;4.602;2023-01-25T07:44:02;63326.63;;;1.60;94.10
41636;BME280;27623;51.966;4.602;2023-01-25T07:46:28;63295.00;;;1.40;95.27
41636;BME280;27623;51.966;4.602;2023-01-25T07:48:53;63326.81;;;1.56;96.02
41636;BME280;27623;51.966;4.602;2023-01-25T07:51:21;63372.34;;;2.01;95.24
41636;BME280;27623;51.966;4.602;2023-01-25T07:53:51;63311.66;;;1.34;94.23
41636;BME280;27623;51.966;4.602;2023-01-25T07:56:24;63381.00;;;1.69;95.18
41636;BME280;27623;51.966;4.602;2023-01-25T07:58:51;63311.69;;;1.49;94.18
41636;BME280;27623;51.966;4.602;2023-01-25T08:01:20;63282.94;;;1.26;96.18
41636;BME280;27623;51.966;4.602;2023-01-25T08:03:46;63340.97;;;1.57;95.79
41636;BME280;27623;51.966;4.602;2023-01-25T08:06:12;63360.06;;;1.78;95.32
41636;BME280;27623;51.966;4.602;2023-01-25T08:08:45;63351.22;;;1.60;94.58
41636;BME280;27623;51.966;4.602;2023-01-25T08:11:12;63375.78;;;1.59;94.48
41636;BME280;27623;51.966;4.602;2023-01-25T08:13:39;63354.72;;;1.87;94.62
41636;BME280;27623;51.966;4.602;2023-01-25T08:16:05;63361.88;;;1.89;94.74
41636;BME280;27623;51.966;4.602;2023-01-25T08:18:31;63365.59;;;1.71;94.41
41636;BME280;27623;51.966;4.602;2023-01-25T08:20:57;63320.69;;;1.55;95.07
41636;BME280;27623;51.966;4.602;2023-01-25T08:23:23;63367.59;;;1.78;94.22
41636;BME280;27623;51.966;4.602;2023-01-25T08:25:49;63377.00;;;1.96;94.04
41636;BME280;27623;51.966;4.602;2023-01-25T08:28:15;63378.63;;;1.97;94.00
41636;BME280;27623;51.966;4.602;2023-01-25T08:30:40;63344.72;;;2.08;93.03
41636;BME280;27623;51.966;4.602;2023-01-25T08:33:06;63446.59;;;2.33;92.39
41636;BME280;27623;51.966;4.602;2023-01-25T08:35:31;63426.03;;;2.14;93.29
41636;BME280;27623;51.966;4.602;2023-01-25T08:37:57;63411.34;;;2.19;92.94
41636;BME280;27623;51.966;4.602;2023-01-25T08:40:22;63417.13;;;2.29;93.06
41636;BME280;27623;51.966;4.602;2023-01-25T08:42:48;63460.75;;;2.27;93.57
41636;BME280;27623;51.966;4.602;2023-01-25T08:45:14;63424.09;;;2.21;93.39
41636;BME280;27623;51.966;4.602;2023-01-25T08:47:40;63434.69;;;2.22;92.70
41636;BME280;27623;51.966;4.602;2023-01-25T08:50:06;63402.75;;;2.25;92.17
41636;BME280;27623;51.966;4.602;2023-01-25T08:52:33;63411.53;;;2.21;91.92
41636;BME280;27623;51.966;4.602;2023-01-25T08:54:58;63417.91;;;2.53;92.14
41636;BME280;27623;51.966;4.602;2023-01-25T08:57:24;63445.63;;;2.67;90.25
41636;BME280;27623;51.966;4.602;2023-01-25T08:59:50;63432.47;;;2.53;91.78
41636;BME280;27623;51.966;4.602;2023-01-25T09:02:16;63457.13;;;2.66;90.87
41636;BME280;27623;51.966;4.602;2023-01-25T09:04:43;63433.00;;;2.53;90.93
41636;BME280;27623;51.966;4.602;2023-01-25T09:07:08;63438.25;;;2.63;90.97
41636;BME280;27623;51.966;4.602;2023-01-25T09:09:34;63439.47;;;2.45;91.60
41636;BME280;27623;51.966;4.602;2023-01-25T09:12:03;63509.63;;;2.75;89.91
41636;BME280;27623;51.966;4.602;2023-01-25T09:14:29;63432.88;;;2.72;90.21
41636;BME280;27623;51.966;4.602;2023-01-25T09:16:54;63457.13;;;2.66;91.55
41636;BME280;27623;51.966;4.602;2023-01-25T09:19:19;63447.06;;;2.66;90.48
41636;BME280;27623;51.966;4.602;2023-01-25T09:21:45;63469.72;;;2.66;90.12
41636;BME280;27623;51.966;4.602;2023-01-25T09:24:12;63426.44;;;2.80;89.37
41636;BME280;27623;51.966;4.602;2023-01-25T09:26:41;63464.88;;;2.76;88.97
41636;BME280;27623;51.966;4.602;2023-01-25T09:29:07;63445.75;;;2.49;90.04
41636;BME280;27623;51.966;4.602;2023-01-25T09:31:33;63410.56;;;2.49;90.48
41636;BME280;27623;51.966;4.602;2023-01-25T09:33:58;63422.03;;;2.40;91.50
41636;BME280;27623;51.966;4.602;2023-01-25T09:36:26;63439.81;;;2.50;91.88
41636;BME280;27623;51.966;4.602;2023-01-25T09:38:52;63422.03;;;2.40;91.33
41636;BME280;27623;51.966;4.602;2023-01-25T09:44:40;63426.50;;;2.40;91.41
41636;BME280;27623;51.966;4.602;2023-01-25T09:55:36;63447.53;;;2.46;91.95
41636;BME280;27623;51.966;4.602;2023-01-25T09:58:11;63462.91;;;2.76;90.92
41636;BME280;27623;51.966;4.602;2023-01-25T10:00:42;63454.31;;;2.83;89.29
41636;BME280;27623;51.966;4.602;2023-01-25T10:03:36;63481.06;;;2.77;89.99
41636;BME280;27623;51.966;4.602;2023-01-25T10:06:04;63478.50;;;2.63;89.88
41636;BME280;27623;51.966;4.602;2023-01-25T10:11:16;63452.25;;;2.62;89.44
41636;BME280;27623;51.966;4.602;2023-01-25T10:13:45;63400.31;;;2.46;90.61
41636;BME280;27623;51.966;4.602;2023-01-25T10:16:20;63404.50;;;2.15;92.11
41636;BME280;27623;51.966;4.602;2023-01-25T10:21:56;63377.91;;;2.01;93.70
41636;BME280;27623;51.966;4.602;2023-01-25T10:27:33;63345.53;;;1.78;94.13
41636;BME280;27623;51.966;4.602;2023-01-25T10:30:19;63434.16;;;2.21;94.52
41636;BME280;27623;51.966;4.602;2023-01-25T10:32:48;63419.09;;;2.21;92.19
41636;BME280;27623;51.966;4.602;2023-01-25T10:35:16;63377.22;;;2.13;93.05
41636;BME280;27623;51.966;4.602;2023-01-25T10:37:45;63394.44;;;2.08;94.09
41636;BME280;27623;51.966;4.602;2023-01-25T10:40:16;63376.44;;;1.95;94.73
41636;BME280;27623;51.966;4.602;2023-01-25T10:43:32;63357.59;;;1.92;94.29
41636;BME280;27623;51.966;4.602;2023-01-25T10:45:32;63372.34;;;2.08;95.41
41636;BME280;27623;51.966;4.602;2023-01-25T10:48:05;63362.47;;;1.96;94.20
41636;BME280;27623;51.966;4.602;2023-01-25T10:53:19;63345.38;;;1.83;95.44
41636;BME280;27623;51.966;4.602;2023-01-25T10:58:36;63360.59;;;1.78;96.96
41636;BME280;27623;51.966;4.602;2023-01-25T11:01:07;63395.88;;;2.14;96.08
41636;BME280;27623;51.966;4.602;2023-01-25T11:03:40;63402.56;;;2.22;95.80
41636;BME280;27623;51.966;4.602;2023-01-25T11:06:07;63349.47;;;1.77;95.43
41636;BME280;27623;51.966;4.602;2023-01-25T11:08:38;63309.72;;;1.49;96.26
41636;BME280;27623;51.966;4.602;2023-01-25T11:11:23;63317.88;;;1.64;96.67
41636;BME280;27623;51.966;4.602;2023-01-25T11:13:50;63328.22;;;1.55;97.49
41636;BME280;27623;51.966;4.602;2023-01-25T11:16:39;63316.75;;;1.56;97.58
41636;BME280;27623;51.966;4.602;2023-01-25T11:19:25;63303.03;;;1.33;98.29
41636;BME280;27623;51.966;4.602;2023-01-25T11:21:52;63275.72;;;1.10;99.01
41636;BME280;27623;51.966;4.602;2023-01-25T11:24:18;63313.78;;;1.29;99.30
41636;BME280;27623;51.966;4.602;2023-01-25T11:26:44;63370.50;;;1.50;98.63
41636;BME280;27623;51.966;4.602;2023-01-25T11:29:17;63358.75;;;1.60;97.68
41636;BME280;27623;51.966;4.602;2023-01-25T11:31:46;63334.66;;;1.47;98.02
41636;BME280;27623;51.966;4.602;2023-01-25T11:34:33;63335.41;;;1.57;97.58
41636;BME280;27623;51.966;4.602;2023-01-25T11:40:01;63379.97;;;1.75;97.56
41636;BME280;27623;51.966;4.602;2023-01-25T12:07:02;63351.72;;;2.00;96.42
41636;BME280;27623;51.966;4.602;2023-01-25T12:20:53;63326.59;;;1.53;96.59
41636;BME280;27623;51.966;4.602;2023-01-25T12:23:46;63319.31;;;1.70;96.41
41636;BME280;27623;51.966;4.602;2023-01-25T12:29:28;63313.50;;;1.06;99.24
41636;BME280;27623;51.966;4.602;2023-01-25T12:32:21;63328.50;;;1.31;99.91
41636;BME280;27623;51.966;4.602;2023-01-25T12:35:27;63322.03;;;1.32;98.63
41636;BME280;27623;51.966;4.602;2023-01-25T12:37:59;63327.09;;;1.40;98.73
41636;BME280;27623;51.966;4.602;2023-01-25T12:43:25;63242.44;;;0.74;100.00
41636;BME280;27623;51.966;4.602;2023-01-25T12:45:53;63295.25;;;1.10;100.00
41636;BME280;27623;51.966;4.602;2023-01-25T12:48:27;63338.41;;;1.43;99.86
41636;BME280;27623;51.966;4.602;2023-01-25T12:50:59;63291.38;;;1.32;99.04
41636;BME280;27623;51.966;4.602;2023-01-25T12:53:37;63298.97;;;1.06;99.51
41636;BME280;27623;51.966;4.602;2023-01-25T12:56:05;63284.50;;;1.14;99.26
41636;BME280;27623;51.966;4.602;2023-01-25T13:07:06;63295.44;;;1.12;100.00
41636;BME280;27623;51.966;4.602;2023-01-25T13:12:54;63244.41;;;0.74;100.00
41636;BME280;27623;51.966;4.602;2023-01-25T13:15:41;63325.56;;;1.19;100.00
41636;BME280;27623;51.966;4.602;2023-01-25T13:21:03;63303.72;;;1.22;100.00
41636;BME280;27623;51.966;4.602;2023-01-25T13:28:45;63313.38;;;1.64;97.33
41636;BME280;27623;51.966;4.602;2023-01-25T13:34:03;63324.78;;;1.42;96.71
41636;BME280;27623;51.966;4.602;2023-01-25T13:42:01;63297.50;;;1.33;96.19
41636;BME280;27623;51.966;4.602;2023-01-25T13:44:29;63304.69;;;1.42;97.26
41636;BME280;27623;51.966;4.602;2023-01-25T13:47:04;63342.22;;;1.54;97.03
41636;BME280;27623;51.966;4.602;2023-01-25T13:49:36;63317.06;;;1.47;97.46
41636;BME280;27623;51.966;4.602;2023-01-25T13:52:06;63309.31;;;1.30;97.46
41636;BME280;27623;51.966;4.602;2023-01-25T13:54:32;63365.88;;;1.55;97.54
41636;BME280;27623;51.966;4.602;2023-01-25T13:57:11;63314.56;;;1.40;97.43
41636;BME280;27623;51.966;4.602;2023-01-25T13:59:37;63288.09;;;1.15;97.66
41636;BME280;27623;51.966;4.602;2023-01-25T14:02:03;63312.00;;;1.32;98.70
41636;BME280;27623;51.966;4.602;2023-01-25T14:04:35;63327.41;;;1.30;98.78
41636;BME280;27623;51.966;4.602;2023-01-25T14:07:01;63328.38;;;1.50;98.54
41636;BME280;27623;51.966;4.602;2023-01-25T14:09:34;63343.84;;;1.55;97.56
41636;BME280;27623;51.966;4.602;2023-01-25T14:12:01;63366.00;;;1.83;97.44
41636;BME280;27623;51.966;4.602;2023-01-25T14:14:30;63360.03;;;1.70;96.37
41636;BME280;27623;51.966;4.602;2023-01-25T14:19:37;63346.97;;;1.77;96.87
41636;BME280;27623;51.966;4.602;2023-01-25T14:22:28;63307.97;;;1.52;96.51
41636;BME280;27623;51.966;4.602;2023-01-25T14:27:33;63329.84;;;1.56;98.28
41636;BME280;27623;51.966;4.602;2023-01-25T14:29:59;63330.50;;;1.38;97.65
41636;BME280;27623;51.966;4.602;2023-01-25T14:32:26;63330.59;;;1.26;97.85
41636;BME280;27623;51.966;4.602;2023-01-25T14:34:54;63345.75;;;1.48;97.79
41636;BME280;27623;51.966;4.602;2023-01-25T14:37:21;63384.25;;;1.72;98.18
41636;BME280;27623;51.966;4.602;2023-01-25T14:39:48;63346.63;;;1.79;97.15
41636;BME280;27623;51.966;4.602;2023-01-25T14:42:18;63364.94;;;1.89;96.35
41636;BME280;27623;51.966;4.602;2023-01-25T14:44:44;63370.69;;;1.85;95.91
41636;BME280;27623;51.966;4.602;2023-01-25T14:49:53;63378.66;;;2.04;95.54
41636;BME280;27623;51.966;4.602;2023-01-25T14:52:21;63392.47;;;2.08;95.96
41636;BME280;27623;51.966;4.602;2023-01-25T14:54:51;63349.88;;;1.89;95.19
41636;BME280;27623;51.966;4.602;2023-01-25T14:57:34;63361.56;;;1.98;96.61
41636;BME280;27623;51.966;4.602;2023-01-25T15:00:05;63358.47;;;1.83;96.52
41636;BME280;27623;51.966;4.602;2023-01-25T15:02:39;63362.97;;;1.90;96.65
41636;BME280;27623;51.966;4.602;2023-01-25T15:05:45;63350.00;;;1.78;98.03
41636;BME280;27623;51.966;4.602;2023-01-25T15:10:57;63292.66;;;1.35;98.36
41636;BME280;27623;51.966;4.602;2023-01-25T15:13:43;63333.31;;;1.29;98.96
41636;BME280;27623;51.966;4.602;2023-01-25T15:16:09;63307.75;;;1.43;98.94
41636;BME280;27623;51.966;4.602;2023-01-25T15:18:53;63343.09;;;1.52;100.00
41636;BME280;27623;51.966;4.602;2023-01-25T15:21:25;63313.66;;;1.41;99.14
41636;BME280;27623;51.966;4.602;2023-01-25T15:23:52;63334.44;;;1.37;99.01
41636;BME280;27623;51.966;4.602;2023-01-25T15:28:43;63341.75;;;1.75;99.62